createdAt,value
2023-01-12T00:00:45.989Z,5.8
2023-01-12T00:01:48.775Z,5.9
2023-01-12T00:02:52.310Z,5.9
2023-01-12T00:03:56.427Z,5.9
2023-01-12T00:05:00.900Z,5.9
2023-01-12T00:06:03.741Z,5.9
2023-01-12T00:07:07.082Z,6
2023-01-12T00:08:09.800Z,6
2023-01-12T00:09:12.906Z,6
2023-01-12T00:10:15.628Z,6
2023-01-12T00:11:18.801Z,6
2023-01-12T00:12:22.212Z,6
2023-01-12T00:13:25.404Z,6
2023-01-12T00:14:29.149Z,6
2023-01-12T00:15:32.409Z,5.9
2023-01-12T00:16:36.450Z,5.9
2023-01-12T00:17:39.820Z,6
2023-01-12T00:18:42.609Z,6
2023-01-12T00:19:46.517Z,6
2023-01-12T00:20:49.513Z,6
2023-01-12T00:21:52.597Z,6
2023-01-12T00:22:55.930Z,6
2023-01-12T00:23:59.656Z,6.1
2023-01-12T00:25:02.947Z,6
2023-01-12T00:26:06.085Z,6
2023-01-12T00:27:09.616Z,6
2023-01-12T00:28:13.356Z,6.1
2023-01-12T00:29:16.401Z,6.1
2023-01-12T00:30:18.996Z,6.1
2023-01-12T00:31:22.266Z,6
2023-01-12T00:32:24.727Z,6
2023-01-12T00:33:27.780Z,6
2023-01-12T00:34:31.970Z,6
2023-01-12T00:35:35.819Z,6
2023-01-12T00:36:38.808Z,6.1
2023-01-12T00:37:41.517Z,6.1
2023-01-12T00:38:44.873Z,6
2023-01-12T00:40:04.627Z,6.1
2023-01-12T00:41:08.031Z,6.1
2023-01-12T00:42:11.069Z,6
2023-01-12T00:43:14.148Z,6
2023-01-12T00:44:16.937Z,6.1
2023-01-12T00:45:19.746Z,6.1
2023-01-12T00:46:23.380Z,6.1
2023-01-12T00:47:26.347Z,6
2023-01-12T00:48:29.491Z,6.1
2023-01-12T00:49:32.200Z,6.1
2023-01-12T00:50:35.015Z,6
2023-01-12T00:51:38.799Z,6
2023-01-12T00:52:41.669Z,6
2023-01-12T00:53:44.436Z,6
2023-01-12T00:54:48.088Z,6
2023-01-12T00:55:51.421Z,5.9
2023-01-12T00:56:54.140Z,5.9
2023-01-12T00:57:57.596Z,5.9
2023-01-12T00:59:00.701Z,5.9
2023-01-12T01:00:03.295Z,6
2023-01-12T01:01:07.071Z,6
2023-01-12T01:02:11.710Z,6
2023-01-12T01:03:15.366Z,5.9
2023-01-12T01:04:17.788Z,5.9
2023-01-12T01:05:20.559Z,5.9
2023-01-12T01:06:23.621Z,5.9
2023-01-12T01:07:27.499Z,6
2023-01-12T01:08:30.912Z,6
2023-01-12T01:09:34.581Z,6
2023-01-12T01:10:38.035Z,6
2023-01-12T01:11:40.202Z,6
2023-01-12T01:12:42.919Z,5.9
2023-01-12T01:13:45.387Z,5.9
2023-01-12T01:14:48.474Z,6
2023-01-12T01:15:52.578Z,6
2023-01-12T01:16:56.392Z,5.9
2023-01-12T01:17:59.103Z,6
2023-01-12T01:19:01.994Z,6
2023-01-12T01:20:05.083Z,6
2023-01-12T01:21:08.266Z,6
2023-01-12T01:22:11.945Z,6
2023-01-12T01:23:15.785Z,6
2023-01-12T01:24:19.082Z,6
2023-01-12T01:25:22.285Z,6
2023-01-12T01:26:25.353Z,6
2023-01-12T01:27:27.826Z,6
2023-01-12T01:28:30.827Z,6
2023-01-12T01:29:34.186Z,6.1
2023-01-12T01:30:37.257Z,6
2023-01-12T01:31:40.738Z,6
2023-01-12T01:32:43.442Z,6
2023-01-12T01:33:46.233Z,6.1
2023-01-12T01:34:49.146Z,6.1
2023-01-12T01:35:52.347Z,6.1
2023-01-12T01:36:55.354Z,6.1
2023-01-12T01:37:58.518Z,6.1
2023-01-12T01:39:02.316Z,6.1
2023-01-12T01:40:05.052Z,6.1
2023-01-12T01:41:08.209Z,6.1
2023-01-12T01:42:10.908Z,6.1
2023-01-12T01:43:13.523Z,6.1
2023-01-12T01:44:17.181Z,6.1
2023-01-12T01:45:19.960Z,6.1
2023-01-12T01:46:23.367Z,6.1
2023-01-12T01:47:27.077Z,6.1
2023-01-12T01:48:30.212Z,6.1
2023-01-12T01:49:33.018Z,6.1
2023-01-12T01:50:35.431Z,6.1
2023-01-12T01:51:38.875Z,6.1
2023-01-12T01:52:41.964Z,6.2
2023-01-12T01:53:44.721Z,6.2
2023-01-12T01:54:48.497Z,6.2
2023-01-12T01:55:51.298Z,6.2
2023-01-12T01:56:54.959Z,6.2
2023-01-12T01:57:58.471Z,6.3
2023-01-12T01:59:01.565Z,6.3
2023-01-12T02:00:04.043Z,6.3
2023-01-12T02:01:07.082Z,6.3
2023-01-12T02:02:10.029Z,6.3
2023-01-12T02:03:13.465Z,6.3
2023-01-12T02:04:15.932Z,6.3
2023-01-12T02:05:19.339Z,6.3
2023-01-12T02:06:22.444Z,6.3
2023-01-12T02:07:25.768Z,6.3
2023-01-12T02:08:27.999Z,6.3
2023-01-12T02:09:31.390Z,6.3
2023-01-12T02:10:35.264Z,6.3
2023-01-12T02:11:38.255Z,6.3
2023-01-12T02:12:41.316Z,6.3
2023-01-12T02:13:44.380Z,6.3
2023-01-12T02:14:48.005Z,6.3
2023-01-12T02:15:51.571Z,6.3
2023-01-12T02:16:54.679Z,6.3
2023-01-12T02:17:57.503Z,6.3
2023-01-12T02:18:59.959Z,6.3
2023-01-12T02:20:03.797Z,6.3
2023-01-12T02:21:07.256Z,6.3
2023-01-12T02:22:10.324Z,6.3
2023-01-12T02:23:13.670Z,6.3
2023-01-12T02:24:16.093Z,6.4
2023-01-12T02:25:19.817Z,6.3
2023-01-12T02:26:24.072Z,6.4
2023-01-12T02:27:26.793Z,6.4
2023-01-12T02:28:29.801Z,6.4
2023-01-12T02:29:33.815Z,6.4
2023-01-12T02:30:36.961Z,6.4
2023-01-12T02:31:40.802Z,6.4
2023-01-12T02:32:43.943Z,6.4
2023-01-12T02:33:47.677Z,6.4
2023-01-12T02:34:50.888Z,6.3
2023-01-12T02:35:53.295Z,6.4
2023-01-12T02:36:56.570Z,6.4
2023-01-12T02:37:59.370Z,6.4
2023-01-12T02:39:02.353Z,6.4
2023-01-12T02:40:05.379Z,6.5
2023-01-12T02:41:09.327Z,6.5
2023-01-12T02:42:13.221Z,6.5
2023-01-12T02:43:16.671Z,6.5
2023-01-12T02:44:20.373Z,6.6
2023-01-12T02:45:23.354Z,6.6
2023-01-12T02:46:26.416Z,6.6
2023-01-12T02:47:29.861Z,6.6
2023-01-12T02:48:33.587Z,6.6
2023-01-12T02:49:37.263Z,6.6
2023-01-12T02:50:40.072Z,6.6
2023-01-12T02:51:42.595Z,6.6
2023-01-12T02:52:45.681Z,6.6
2023-01-12T02:53:48.787Z,6.6
2023-01-12T02:54:51.849Z,6.6
2023-01-12T02:55:54.835Z,6.6
2023-01-12T02:56:58.127Z,6.6
2023-01-12T02:58:02.188Z,6.6
2023-01-12T02:59:05.537Z,6.6
2023-01-12T03:00:08.347Z,6.6
2023-01-12T03:01:11.935Z,6.6
2023-01-12T03:02:14.936Z,6.6
2023-01-12T03:03:18.561Z,6.6
2023-01-12T03:04:21.901Z,6.6
2023-01-12T03:05:25.066Z,6.6
2023-01-12T03:06:28.436Z,6.6
2023-01-12T03:07:31.167Z,6.6
2023-01-12T03:08:33.874Z,6.6
2023-01-12T03:09:36.472Z,6.5
2023-01-12T03:10:39.770Z,6.5
2023-01-12T03:11:42.762Z,6.6
2023-01-12T03:12:45.868Z,6.5
2023-01-12T03:13:49.660Z,6.6
2023-01-12T03:14:53.291Z,6.6
2023-01-12T03:15:57.006Z,6.6
2023-01-12T03:17:00.191Z,6.7
2023-01-12T03:18:03.262Z,6.7
2023-01-12T03:19:06.002Z,6.6
2023-01-12T03:20:08.801Z,6.6
2023-01-12T03:21:11.121Z,6.7
2023-01-12T03:22:14.428Z,6.7
2023-01-12T03:23:17.162Z,6.7
2023-01-12T03:24:20.575Z,6.7
2023-01-12T03:25:23.907Z,6.7
2023-01-12T03:26:26.982Z,6.7
2023-01-12T03:27:29.826Z,6.7
2023-01-12T03:28:33.309Z,6.7
2023-01-12T03:29:37.418Z,6.7
2023-01-12T03:30:40.331Z,6.7
2023-01-12T03:31:43.119Z,6.8
2023-01-12T03:32:46.358Z,6.8
2023-01-12T03:33:49.188Z,6.7
2023-01-12T03:34:52.649Z,6.7
2023-01-12T03:35:54.804Z,6.6
2023-01-12T03:36:57.661Z,6.7
2023-01-12T03:38:00.953Z,6.7
2023-01-12T03:39:04.421Z,6.7
2023-01-12T03:40:07.531Z,6.7
2023-01-12T03:41:10.601Z,6.6
2023-01-12T03:42:13.455Z,6.6
2023-01-12T03:43:16.256Z,6.6
2023-01-12T03:44:19.375Z,6.6
2023-01-12T03:45:23.269Z,6.6
2023-01-12T03:46:26.876Z,6.6
2023-01-12T03:47:30.020Z,6.6
2023-01-12T03:48:33.718Z,6.6
2023-01-12T03:49:36.903Z,6.6
2023-01-12T03:50:39.971Z,6.6
2023-01-12T03:51:42.960Z,6.7
2023-01-12T03:52:46.098Z,6.7
2023-01-12T03:53:49.099Z,6.6
2023-01-12T03:54:52.455Z,6.6
2023-01-12T03:55:55.588Z,6.6
2023-01-12T03:56:58.935Z,6.6
2023-01-12T03:58:02.079Z,6.6
2023-01-12T03:59:05.713Z,6.7
2023-01-12T04:00:08.803Z,6.6
2023-01-12T04:01:13.009Z,6.6
2023-01-12T04:02:16.178Z,6.6
2023-01-12T04:03:19.297Z,6.6
2023-01-12T04:04:22.755Z,6.6
2023-01-12T04:05:25.471Z,6.6
2023-01-12T04:06:28.290Z,6.6
2023-01-12T04:07:30.767Z,6.6
2023-01-12T04:08:33.827Z,6.6
2023-01-12T04:09:36.659Z,6.6
2023-01-12T04:10:39.909Z,6.6
2023-01-12T04:11:43.166Z,6.6
2023-01-12T04:12:45.875Z,6.6
2023-01-12T04:13:49.025Z,6.6
2023-01-12T04:14:51.744Z,6.7
2023-01-12T04:15:54.541Z,6.7
2023-01-12T04:16:58.130Z,6.6
2023-01-12T04:18:00.909Z,6.6
2023-01-12T04:19:03.356Z,6.6
2023-01-12T04:20:06.150Z,6.6
2023-01-12T04:21:09.478Z,6.6
2023-01-12T04:22:12.496Z,6.6
2023-01-12T04:23:15.004Z,6.6
2023-01-12T04:24:19.168Z,6.6
2023-01-12T04:25:21.372Z,6.7
2023-01-12T04:26:24.819Z,6.7
2023-01-12T04:27:28.270Z,6.6
2023-01-12T04:28:31.795Z,6.6
2023-01-12T04:29:34.879Z,6.6
2023-01-12T04:30:37.887Z,6.6
2023-01-12T04:31:41.293Z,6.6
2023-01-12T04:32:45.468Z,6.6
2023-01-12T04:33:48.553Z,6.6
2023-01-12T04:34:51.056Z,6.6
2023-01-12T04:35:54.135Z,6.6
2023-01-12T04:36:57.488Z,6.6
2023-01-12T04:38:00.359Z,6.6
2023-01-12T04:39:03.720Z,6.6
2023-01-12T04:40:06.849Z,6.6
2023-01-12T04:41:10.383Z,6.6
2023-01-12T04:42:13.442Z,6.6
2023-01-12T04:43:16.552Z,6.6
2023-01-12T04:44:19.345Z,6.6
2023-01-12T04:45:22.226Z,6.6
2023-01-12T04:46:25.657Z,6.6
2023-01-12T04:47:29.393Z,6.6
2023-01-12T04:48:33.631Z,6.6
2023-01-12T04:49:36.713Z,6.6
2023-01-12T04:50:39.901Z,6.6
2023-01-12T04:51:42.689Z,6.6
2023-01-12T04:52:45.535Z,6.6
2023-01-12T04:53:48.267Z,6.6
2023-01-12T04:54:51.295Z,6.6
2023-01-12T04:55:53.878Z,6.6
2023-01-12T04:56:56.595Z,6.6
2023-01-12T04:57:59.927Z,6.6
2023-01-12T04:59:02.993Z,6.6
2023-01-12T05:00:06.809Z,6.6
2023-01-12T05:01:10.923Z,6.6
2023-01-12T05:02:14.888Z,6.6
2023-01-12T05:03:18.367Z,6.6
2023-01-12T05:04:22.542Z,6.7
2023-01-12T05:05:26.007Z,6.7
2023-01-12T05:06:29.378Z,6.6
2023-01-12T05:07:32.184Z,6.7
2023-01-12T05:08:35.557Z,6.7
2023-01-12T05:09:38.929Z,6.7
2023-01-12T05:10:41.144Z,6.7
2023-01-12T05:11:44.485Z,6.7
2023-01-12T05:12:47.900Z,6.7
2023-01-12T05:13:50.883Z,6.7
2023-01-12T05:14:53.715Z,6.7
2023-01-12T05:15:56.456Z,6.7
2023-01-12T05:16:59.878Z,6.7
2023-01-12T05:18:02.310Z,6.7
2023-01-12T05:19:05.327Z,6.7
2023-01-12T05:20:09.145Z,6.7
2023-01-12T05:21:11.861Z,6.7
2023-01-12T05:22:14.911Z,6.7
2023-01-12T05:23:18.031Z,6.7
2023-01-12T05:24:21.683Z,6.7
2023-01-12T05:25:24.796Z,6.7
2023-01-12T05:26:28.173Z,6.7
2023-01-12T05:27:31.037Z,6.7
2023-01-12T05:28:34.145Z,6.7
2023-01-12T05:29:36.858Z,6.7
2023-01-12T05:30:40.179Z,6.7
2023-01-12T05:31:42.680Z,6.7
2023-01-12T05:32:45.530Z,6.7
2023-01-12T05:33:48.347Z,6.7
2023-01-12T05:34:51.459Z,6.7
2023-01-12T05:35:55.324Z,6.7
2023-01-12T05:36:58.357Z,6.7
2023-01-12T05:38:01.361Z,6.7
2023-01-12T05:39:04.084Z,6.7
2023-01-12T05:40:06.677Z,6.7
2023-01-12T05:41:10.062Z,6.7
2023-01-12T05:42:12.914Z,6.8
2023-01-12T05:43:16.318Z,6.8
2023-01-12T05:44:19.361Z,6.8
2023-01-12T05:45:22.245Z,6.7
2023-01-12T05:46:26.167Z,6.7
2023-01-12T05:47:28.774Z,6.7
2023-01-12T05:48:31.489Z,6.7
2023-01-12T05:49:35.127Z,6.7
2023-01-12T05:50:39.195Z,6.7
2023-01-12T05:51:42.986Z,6.7
2023-01-12T05:52:46.436Z,6.7
2023-01-12T05:53:49.541Z,6.7
2023-01-12T05:54:52.538Z,6.7
2023-01-12T05:55:55.905Z,6.7
2023-01-12T05:56:58.166Z,6.7
2023-01-12T05:58:01.271Z,6.7
2023-01-12T05:59:04.681Z,6.7
2023-01-12T06:00:07.858Z,6.7
2023-01-12T06:01:11.656Z,6.7
2023-01-12T06:02:14.829Z,6.7
2023-01-12T06:03:17.059Z,6.7
2023-01-12T06:04:21.009Z,6.7
2023-01-12T06:05:23.742Z,6.8
2023-01-12T06:06:26.801Z,6.7
2023-01-12T06:07:30.672Z,6.7
2023-01-12T06:08:33.954Z,6.7
2023-01-12T06:09:36.763Z,6.7
2023-01-12T06:10:39.464Z,6.7
2023-01-12T06:11:42.812Z,6.6
2023-01-12T06:12:45.400Z,6.6
2023-01-12T06:13:48.535Z,6.7
2023-01-12T06:14:51.580Z,6.7
2023-01-12T06:15:55.215Z,6.7
2023-01-12T06:16:58.074Z,6.7
2023-01-12T06:18:00.913Z,6.7
2023-01-12T06:19:04.220Z,6.7
2023-01-12T06:20:06.953Z,6.7
2023-01-12T06:21:10.165Z,6.6
2023-01-12T06:22:13.767Z,6.6
2023-01-12T06:23:17.275Z,6.6
2023-01-12T06:24:20.074Z,6.7
2023-01-12T06:25:22.513Z,6.7
2023-01-12T06:26:26.163Z,6.7
2023-01-12T06:27:28.935Z,6.7
2023-01-12T06:28:31.470Z,6.7
2023-01-12T06:29:34.541Z,6.7
2023-01-12T06:30:38.023Z,6.7
2023-01-12T06:31:40.538Z,6.7
2023-01-12T06:32:43.349Z,6.7
2023-01-12T06:33:46.236Z,6.7
2023-01-12T06:34:49.858Z,6.7
2023-01-12T06:35:52.916Z,6.7
2023-01-12T06:36:55.752Z,6.8
2023-01-12T06:37:59.244Z,6.8
2023-01-12T06:39:02.519Z,6.7
2023-01-12T06:40:06.243Z,6.7
2023-01-12T06:41:09.394Z,6.7
2023-01-12T06:42:12.804Z,6.7
2023-01-12T06:43:15.235Z,6.7
2023-01-12T06:44:18.489Z,6.7
2023-01-12T06:45:21.281Z,6.7
2023-01-12T06:46:24.704Z,6.7
2023-01-12T06:47:27.158Z,6.7
2023-01-12T06:48:41.123Z,6.7
2023-01-12T06:49:44.225Z,6.8
2023-01-12T06:50:47.256Z,6.7
2023-01-12T06:51:50.006Z,6.7
2023-01-12T06:52:52.519Z,6.7
2023-01-12T06:53:55.892Z,6.7
2023-01-12T06:54:59.694Z,6.7
2023-01-12T06:56:02.431Z,6.7
2023-01-12T06:57:06.083Z,6.7
2023-01-12T06:58:09.860Z,6.8
2023-01-12T06:59:12.922Z,6.7
2023-01-12T07:00:16.203Z,6.7
2023-01-12T07:01:20.062Z,6.7
2023-01-12T07:02:23.435Z,6.7
2023-01-12T07:03:26.544Z,6.8
2023-01-12T07:04:29.956Z,6.8
2023-01-12T07:05:33.086Z,6.8
2023-01-12T07:06:36.265Z,6.8
2023-01-12T07:07:42.327Z,6.8
2023-01-12T07:08:45.139Z,6.8
2023-01-12T07:09:48.855Z,6.8
2023-01-12T07:10:52.709Z,6.9
2023-01-12T07:11:55.721Z,6.9
2023-01-12T07:12:59.134Z,6.9
2023-01-12T07:14:02.199Z,6.8
2023-01-12T07:15:05.459Z,6.8
2023-01-12T07:16:08.916Z,6.8
2023-01-12T07:17:12.724Z,6.8
2023-01-12T07:18:16.244Z,6.8
2023-01-12T07:19:19.528Z,6.8
2023-01-12T07:20:22.324Z,6.8
2023-01-12T07:21:25.677Z,6.7
2023-01-12T07:22:28.677Z,6.7
2023-01-12T07:23:31.555Z,6.8
2023-01-12T07:24:34.562Z,6.7
2023-01-12T07:25:38.350Z,6.7
2023-01-12T07:26:42.442Z,6.7
2023-01-12T07:27:45.809Z,6.7
2023-01-12T07:28:49.164Z,6.7
2023-01-12T07:29:52.539Z,6.7
2023-01-12T07:30:55.554Z,6.7
2023-01-12T07:31:58.152Z,6.7
2023-01-12T07:33:01.334Z,6.8
2023-01-12T07:34:04.494Z,6.8
2023-01-12T07:35:07.578Z,6.8
2023-01-12T07:36:10.664Z,6.8
2023-01-12T07:37:15.579Z,6.8
2023-01-12T07:38:18.571Z,6.8
2023-01-12T07:39:21.589Z,6.8
2023-01-12T07:40:24.677Z,6.8
2023-01-12T07:41:28.008Z,6.8
2023-01-12T07:42:32.019Z,6.8
2023-01-12T07:43:35.668Z,6.8
2023-01-12T07:44:38.951Z,6.8
2023-01-12T07:45:41.729Z,6.8
2023-01-12T07:46:45.357Z,6.8
2023-01-12T07:47:49.086Z,6.8
2023-01-12T07:48:52.092Z,6.8
2023-01-12T07:49:55.502Z,6.8
2023-01-12T07:50:58.030Z,6.8
2023-01-12T07:52:01.128Z,6.8
2023-01-12T07:53:04.677Z,6.8
2023-01-12T07:54:07.967Z,6.8
2023-01-12T07:55:11.690Z,6.8
2023-01-12T07:56:14.779Z,6.8
2023-01-12T07:57:18.483Z,6.8
2023-01-12T07:58:22.391Z,6.8
2023-01-12T07:59:26.003Z,6.8
2023-01-12T08:00:29.647Z,6.8
2023-01-12T08:01:34.074Z,6.8
2023-01-12T08:02:37.725Z,6.9
2023-01-12T08:03:40.474Z,6.8
2023-01-12T08:04:43.591Z,6.9
2023-01-12T08:05:46.762Z,6.9
2023-01-12T08:06:50.128Z,6.9
2023-01-12T08:07:53.344Z,6.9
2023-01-12T08:08:56.623Z,6.9
2023-01-12T08:10:00.307Z,6.9
2023-01-12T08:11:03.756Z,6.9
2023-01-12T08:12:07.419Z,6.9
2023-01-12T08:13:10.943Z,6.9
2023-01-12T08:14:15.195Z,7
2023-01-12T08:15:17.911Z,6.9
2023-01-12T08:16:21.710Z,6.9
2023-01-12T08:17:25.195Z,7
2023-01-12T08:18:27.634Z,6.9
2023-01-12T08:19:31.649Z,6.9
2023-01-12T08:20:34.663Z,6.9
2023-01-12T08:21:38.556Z,6.9
2023-01-12T08:22:42.231Z,7
2023-01-12T08:23:45.599Z,6.9
2023-01-12T08:24:49.312Z,6.9
2023-01-12T08:25:51.817Z,7
2023-01-12T08:26:55.229Z,6.9
2023-01-12T08:27:58.911Z,6.9
2023-01-12T08:29:02.044Z,6.9
2023-01-12T08:30:05.964Z,6.9
2023-01-12T08:31:09.744Z,7
2023-01-12T08:32:13.959Z,7
2023-01-12T08:33:17.241Z,7
2023-01-12T08:34:20.506Z,6.9
2023-01-12T08:35:23.831Z,7
2023-01-12T08:36:26.834Z,6.9
2023-01-12T08:37:31.024Z,7
2023-01-12T08:38:33.830Z,7
2023-01-12T08:39:37.826Z,7
2023-01-12T08:40:41.839Z,7
2023-01-12T08:41:44.981Z,7.1
2023-01-12T08:42:48.111Z,7
2023-01-12T08:43:51.829Z,7
2023-01-12T08:44:55.606Z,7
2023-01-12T08:45:59.818Z,7
2023-01-12T08:47:02.609Z,7
2023-01-12T08:48:05.123Z,7
2023-01-12T08:49:08.867Z,7.1
2023-01-12T08:50:12.582Z,7.1
2023-01-12T08:51:15.975Z,7.1
2023-01-12T08:52:19.211Z,7.1
2023-01-12T08:53:22.556Z,7.1
2023-01-12T08:54:26.040Z,7.1
2023-01-12T08:55:29.761Z,7.1
2023-01-12T08:56:32.932Z,7.1
2023-01-12T08:57:36.011Z,7.1
2023-01-12T08:58:39.453Z,7.1
2023-01-12T08:59:42.216Z,7.1
2023-01-12T09:00:45.823Z,7.1
2023-01-12T09:01:50.604Z,7.1
2023-01-12T09:02:53.758Z,7.1
2023-01-12T09:03:56.826Z,7.1
2023-01-12T09:04:59.569Z,7.1
2023-01-12T09:06:02.091Z,7.1
2023-01-12T09:07:05.783Z,7.2
2023-01-12T09:08:08.954Z,7.1
2023-01-12T09:09:12.157Z,7.1
2023-01-12T09:10:15.501Z,7.1
2023-01-12T09:11:18.207Z,7.1
2023-01-12T09:12:25.162Z,7.2
2023-01-12T09:13:28.627Z,7.2
2023-01-12T09:14:32.278Z,7.1
2023-01-12T09:15:36.030Z,7.1
2023-01-12T09:16:40.216Z,7.2
2023-01-12T09:17:43.880Z,7.2
2023-01-12T09:18:46.589Z,7.2
2023-01-12T09:19:49.688Z,7.1
2023-01-12T09:20:53.202Z,7.1
2023-01-12T09:21:56.307Z,7.1
2023-01-12T09:23:00.333Z,7.2
2023-01-12T09:24:04.144Z,7.2
2023-01-12T09:25:07.673Z,7.2
2023-01-12T09:26:11.162Z,7.2
2023-01-12T09:27:14.633Z,7.2
2023-01-12T09:28:18.058Z,7.2
2023-01-12T09:29:20.994Z,7.2
2023-01-12T09:30:24.291Z,7.2
2023-01-12T09:31:27.746Z,7.1
2023-01-12T09:32:38.944Z,7.1
2023-01-12T09:33:42.563Z,7.1
2023-01-12T09:34:45.331Z,7.2
2023-01-12T09:35:49.169Z,7.2
2023-01-12T09:36:51.876Z,7.2
2023-01-12T09:37:54.664Z,7.2
2023-01-12T09:38:57.815Z,7.2
2023-01-12T09:40:00.963Z,7.2
2023-01-12T09:41:04.543Z,7.2
2023-01-12T09:42:07.640Z,7.2
2023-01-12T09:43:10.652Z,7.2
2023-01-12T09:44:13.816Z,7.2
2023-01-12T09:45:17.560Z,7.2
2023-01-12T09:46:20.741Z,7.2
2023-01-12T09:47:23.858Z,7.2
2023-01-12T09:48:27.251Z,7.2
2023-01-12T09:49:31.130Z,7.2
2023-01-12T09:50:34.241Z,7.2
2023-01-12T09:51:37.695Z,7.2
2023-01-12T09:52:41.748Z,7.2
2023-01-12T09:53:48.546Z,7.2
2023-01-12T09:54:51.729Z,7.2
2023-01-12T09:55:55.422Z,7.2
2023-01-12T09:56:59.042Z,7.2
2023-01-12T09:58:02.413Z,7.5
2023-01-12T09:59:04.982Z,7.6
2023-01-12T10:00:08.108Z,7.5
2023-01-12T10:01:31.399Z,7.4
2023-01-12T10:02:35.774Z,7.4
2023-01-12T10:03:40.885Z,7.4
2023-01-12T10:04:45.046Z,7.4
2023-01-12T10:05:48.699Z,7.3
2023-01-12T10:06:52.118Z,7.3
2023-01-12T10:07:54.933Z,7.3
2023-01-12T10:08:58.329Z,7.3
2023-01-12T10:10:01.719Z,7.3
2023-01-12T10:11:04.451Z,7.3
2023-01-12T10:12:07.491Z,7.3
2023-01-12T10:13:10.921Z,7.3
2023-01-12T10:14:13.432Z,7.3
2023-01-12T10:15:16.679Z,7.3
2023-01-12T10:16:19.720Z,7.2
2023-01-12T10:17:23.181Z,7.2
2023-01-12T10:18:26.579Z,7.2
2023-01-12T10:19:30.297Z,7.2
2023-01-12T10:20:34.185Z,7.2
2023-01-12T10:21:37.249Z,7.2
2023-01-12T10:22:40.191Z,7.3
2023-01-12T10:23:43.869Z,7.3
2023-01-12T10:24:47.623Z,7.3
2023-01-12T10:25:50.750Z,7.3
2023-01-12T10:26:53.831Z,7.3
2023-01-12T10:27:57.697Z,7.3
2023-01-12T10:29:01.505Z,7.3
2023-01-12T10:30:04.799Z,7.3
2023-01-12T10:31:08.243Z,7.2
2023-01-12T10:32:11.031Z,7.3
2023-01-12T10:33:14.998Z,7.3
2023-01-12T10:34:18.412Z,7.3
2023-01-12T10:35:21.859Z,7.3
2023-01-12T10:36:25.947Z,7.3
2023-01-12T10:37:28.665Z,7.4
2023-01-12T10:38:32.072Z,7.3
2023-01-12T10:39:35.437Z,7.3
2023-01-12T10:40:38.817Z,7.3
2023-01-12T10:41:41.881Z,7.4
2023-01-12T10:42:45.240Z,7.3
2023-01-12T10:43:48.471Z,7.3
2023-01-12T10:44:51.287Z,7.3
2023-01-12T10:45:54.490Z,7.4
2023-01-12T10:46:56.941Z,7.3
2023-01-12T10:48:00.305Z,7.4
2023-01-12T10:49:03.435Z,7.4
2023-01-12T10:50:07.083Z,7.4
2023-01-12T10:51:10.473Z,7.4
2023-01-12T10:52:14.051Z,7.4
2023-01-12T10:53:17.799Z,7.5
2023-01-12T10:54:21.527Z,7.5
2023-01-12T10:55:24.339Z,7.5
2023-01-12T10:56:27.158Z,7.5
2023-01-12T10:57:30.222Z,7.6
2023-01-12T10:58:33.293Z,7.6
2023-01-12T10:59:36.855Z,7.6
2023-01-12T11:00:40.206Z,7.6
2023-01-12T11:01:43.910Z,7.6
2023-01-12T11:02:47.539Z,7.6
2023-01-12T11:03:50.210Z,7.6
2023-01-12T11:04:54.380Z,7.6
2023-01-12T11:05:58.058Z,7.7
2023-01-12T11:07:05.552Z,7.7
2023-01-12T11:08:09.094Z,7.7
2023-01-12T11:09:12.206Z,7.7
2023-01-12T11:10:21.464Z,7.7
2023-01-12T11:11:24.910Z,7.7
2023-01-12T11:12:31.363Z,7.7
2023-01-12T11:13:34.573Z,7.7
2023-01-12T11:14:38.305Z,7.7
2023-01-12T11:15:41.767Z,7.7
2023-01-12T11:16:45.726Z,7.7
2023-01-12T11:17:51.486Z,7.7
2023-01-12T11:18:54.863Z,7.7
2023-01-12T11:19:57.865Z,7.7
2023-01-12T11:21:01.350Z,7.7
2023-01-12T11:22:04.787Z,7.7
2023-01-12T11:23:08.472Z,7.8
2023-01-12T11:24:12.276Z,7.8
2023-01-12T11:25:15.526Z,7.8
2023-01-12T11:26:18.577Z,7.8
2023-01-12T11:27:21.488Z,7.8
2023-01-12T11:28:24.923Z,7.8
2023-01-12T11:29:27.994Z,7.8
2023-01-12T11:30:31.049Z,7.8
2023-01-12T11:31:34.491Z,7.8
2023-01-12T11:32:37.749Z,7.9
2023-01-12T11:33:40.442Z,7.9
2023-01-12T11:34:43.909Z,7.9
2023-01-12T11:35:46.974Z,7.9
2023-01-12T11:36:49.409Z,7.9
2023-01-12T11:37:52.533Z,7.9
2023-01-12T11:38:55.929Z,7.9
2023-01-12T11:39:59.755Z,7.9
2023-01-12T11:41:03.100Z,7.9
2023-01-12T11:42:05.607Z,7.9
2023-01-12T11:43:09.284Z,7.9
2023-01-12T11:44:12.735Z,8
2023-01-12T11:45:15.568Z,8
2023-01-12T11:46:19.307Z,8
2023-01-12T11:47:22.500Z,8.1
2023-01-12T11:48:25.932Z,8
2023-01-12T11:49:28.976Z,8.1
2023-01-12T11:50:31.564Z,8.1
2023-01-12T11:51:34.681Z,8
2023-01-12T11:52:37.778Z,8.1
2023-01-12T11:53:43.419Z,8.1
2023-01-12T11:54:46.768Z,8.1
2023-01-12T11:55:50.912Z,8.1
2023-01-12T11:56:54.280Z,8.1
2023-01-12T11:57:57.789Z,8.1
2023-01-12T11:59:01.812Z,8.2
2023-01-12T12:00:05.105Z,8.2
2023-01-12T12:01:10.072Z,8.2
2023-01-12T12:02:14.149Z,8.2
2023-01-12T12:03:18.764Z,8.2
2023-01-12T12:04:22.548Z,8.2
2023-01-12T12:05:25.835Z,8.3
2023-01-12T12:06:29.281Z,8.3
2023-01-12T12:07:32.558Z,8.3
2023-01-12T12:08:36.221Z,8.3
2023-01-12T12:09:39.373Z,8.3
2023-01-12T12:10:42.435Z,8.3
2023-01-12T12:11:46.845Z,8.3
2023-01-12T12:12:50.343Z,8.3
2023-01-12T12:13:53.648Z,8.4
2023-01-12T12:14:56.181Z,8.4
2023-01-12T12:15:59.582Z,8.4
2023-01-12T12:17:03.705Z,8.4
2023-01-12T12:18:07.156Z,8.4
2023-01-12T12:19:10.501Z,8.4
2023-01-12T12:20:13.875Z,8.4
2023-01-12T12:21:17.231Z,8.4
2023-01-12T12:22:20.903Z,8.4
2023-01-12T12:23:24.470Z,8.4
2023-01-12T12:24:28.099Z,8.4
2023-01-12T12:25:31.992Z,8.5
2023-01-12T12:26:35.107Z,8.5
2023-01-12T12:27:39.045Z,8.4
2023-01-12T12:28:43.068Z,8.5
2023-01-12T12:29:45.514Z,8.5
2023-01-12T12:30:48.785Z,8.5
2023-01-12T12:31:52.791Z,8.5
2023-01-12T12:32:56.811Z,8.5
2023-01-12T12:33:59.933Z,8.5
2023-01-12T12:35:03.689Z,8.5
2023-01-12T12:36:07.386Z,8.5
2023-01-12T12:37:11.407Z,8.5
2023-01-12T12:38:15.436Z,8.5
2023-01-12T12:39:18.921Z,8.5
2023-01-12T12:40:22.278Z,8.5
2023-01-12T12:41:26.633Z,8.5
2023-01-12T12:42:29.787Z,8.5
2023-01-12T12:43:33.935Z,8.5
2023-01-12T12:44:36.841Z,8.6
2023-01-12T12:45:39.983Z,8.6
2023-01-12T12:46:43.121Z,8.6
2023-01-12T12:47:46.732Z,8.6
2023-01-12T12:48:50.119Z,8.6
2023-01-12T12:49:53.451Z,8.6
2023-01-12T12:50:56.959Z,8.6
2023-01-12T12:52:00.472Z,8.6
2023-01-12T12:53:03.175Z,8.6
2023-01-12T12:54:06.982Z,8.6
2023-01-12T12:55:10.427Z,8.7
2023-01-12T12:56:13.866Z,8.7
2023-01-12T12:57:17.089Z,8.7
2023-01-12T12:58:20.455Z,8.7
2023-01-12T12:59:24.567Z,8.7
2023-01-12T13:00:28.023Z,8.7
2023-01-12T13:01:32.023Z,8.7
2023-01-12T13:02:35.415Z,8.7
2023-01-12T13:03:38.843Z,8.7
2023-01-12T13:04:42.216Z,8.7
2023-01-12T13:05:45.893Z,8.7
2023-01-12T13:06:49.803Z,8.8
2023-01-12T13:07:53.535Z,8.8
2023-01-12T13:08:57.373Z,8.8
2023-01-12T13:10:00.828Z,8.8
2023-01-12T13:11:04.175Z,8.8
2023-01-12T13:12:07.360Z,8.8
2023-01-12T13:13:10.778Z,8.9
2023-01-12T13:14:13.220Z,8.9
2023-01-12T13:15:19.247Z,8.9
2023-01-12T13:16:22.863Z,8.9
2023-01-12T13:17:26.431Z,8.9
2023-01-12T13:18:30.158Z,8.9
2023-01-12T13:19:34.268Z,8.9
2023-01-12T13:20:37.504Z,8.9
2023-01-12T13:21:41.230Z,8.9
2023-01-12T13:22:44.985Z,8.9
2023-01-12T13:23:48.058Z,8.9
2023-01-12T13:24:51.196Z,8.9
2023-01-12T13:25:54.217Z,8.8
2023-01-12T13:26:57.007Z,8.8
2023-01-12T13:28:00.048Z,8.9
2023-01-12T13:29:04.037Z,8.9
2023-01-12T13:30:06.841Z,8.9
2023-01-12T13:31:11.211Z,8.9
2023-01-12T13:32:14.393Z,8.9
2023-01-12T13:33:17.556Z,8.9
2023-01-12T13:34:20.902Z,8.9
2023-01-12T13:35:23.696Z,9
2023-01-12T13:36:27.035Z,9
2023-01-12T13:37:30.471Z,9
2023-01-12T13:38:34.330Z,9
2023-01-12T13:39:37.448Z,9
2023-01-12T13:40:40.203Z,9
2023-01-12T13:41:43.980Z,9.1
2023-01-12T13:42:46.541Z,9.1
2023-01-12T13:43:50.233Z,9.1
2023-01-12T13:44:53.710Z,9.1
2023-01-12T13:45:56.920Z,9.1
2023-01-12T13:47:00.925Z,9.1
2023-01-12T13:48:04.391Z,9.1
2023-01-12T13:49:07.580Z,9.1
2023-01-12T13:50:11.109Z,9
2023-01-12T13:51:13.550Z,9.1
2023-01-12T13:52:17.343Z,9.1
2023-01-12T13:53:21.042Z,9.1
2023-01-12T13:54:23.725Z,9.1
2023-01-12T13:55:26.873Z,9.1
2023-01-12T13:56:30.596Z,9.1
2023-01-12T13:57:33.392Z,9.1
2023-01-12T13:58:36.755Z,9.1
2023-01-12T13:59:40.132Z,9.1
2023-01-12T14:00:43.670Z,9.1
2023-01-12T14:01:47.529Z,9.1
2023-01-12T14:02:51.860Z,9.1
2023-01-12T14:03:55.356Z,9.1
2023-01-12T14:04:59.096Z,9.1
2023-01-12T14:06:02.524Z,9.1
2023-01-12T14:07:05.909Z,9.1
2023-01-12T14:08:09.123Z,9.1
2023-01-12T14:09:12.448Z,9.2
2023-01-12T14:10:16.624Z,9.2
2023-01-12T14:11:22.775Z,9.1
2023-01-12T14:12:25.893Z,9.1
2023-01-12T14:13:29.238Z,9.1
2023-01-12T14:14:32.322Z,9.1
2023-01-12T14:15:35.428Z,9.2
2023-01-12T14:16:38.912Z,9.1
2023-01-12T14:17:41.715Z,9.2
2023-01-12T14:18:45.821Z,9.2
2023-01-12T14:19:49.449Z,9.2
2023-01-12T14:20:52.838Z,9.2
2023-01-12T14:21:58.803Z,9.2
2023-01-12T14:23:02.464Z,9.2
2023-01-12T14:24:05.535Z,9.2
2023-01-12T14:25:08.325Z,9.2
2023-01-12T14:26:11.723Z,9.2
2023-01-12T14:27:14.722Z,9.3
2023-01-12T14:28:17.953Z,9.2
2023-01-12T14:29:22.026Z,9.2
2023-01-12T14:30:25.474Z,9.2
2023-01-12T14:31:29.354Z,9.2
2023-01-12T14:32:33.105Z,9.2
2023-01-12T14:33:36.101Z,9.3
2023-01-12T14:34:39.983Z,9.2
2023-01-12T14:35:42.870Z,9.2
2023-01-12T14:36:46.043Z,9.2
2023-01-12T14:37:50.032Z,9.2
2023-01-12T14:38:53.458Z,9.2